sensor_id;sensor_type;location;lat;lon;timestamp;pressure;altitude;pressure_sealevel;temperature
72405;BMP280;60395;52.020;113.548;2024-03-06T00:01:25;92972.69;;;-7.15
72405;BMP280;60395;52.020;113.548;2024-03-06T00:04:28;92968.13;;;-6.60
72405;BMP280;60395;52.020;113.548;2024-03-06T00:07:33;92968.84;;;-6.37
72405;BMP280;60395;52.020;113.548;2024-03-06T00:10:36;92968.19;;;-6.25
72405;BMP280;60395;52.020;113.548;2024-03-06T00:13:40;92978.16;;;-6.18
72405;BMP280;60395;52.020;113.548;2024-03-06T00:16:43;92979.47;;;-6.17
72405;BMP280;60395;52.020;113.548;2024-03-06T00:19:47;92972.06;;;-6.24
72405;BMP280;60395;52.020;113.548;2024-03-06T00:22:50;92971.94;;;-6.26
72405;BMP280;60395;52.020;113.548;2024-03-06T00:25:54;92975.16;;;-6.38
72405;BMP280;60395;52.020;113.548;2024-03-06T00:28:57;92970.03;;;-6.49
72405;BMP280;60395;52.020;113.548;2024-03-06T00:32:00;92972.13;;;-6.69
72405;BMP280;60395;52.020;113.548;2024-03-06T00:35:04;92970.63;;;-6.84
72405;BMP280;60395;52.020;113.548;2024-03-06T00:38:08;92967.66;;;-6.92
72405;BMP280;60395;52.020;113.548;2024-03-06T00:41:11;92973.81;;;-6.95
72405;BMP280;60395;52.020;113.548;2024-03-06T00:44:15;92971.94;;;-7.06
72405;BMP280;60395;52.020;113.548;2024-03-06T00:47:19;92984.69;;;-7.06
72405;BMP280;60395;52.020;113.548;2024-03-06T00:50:24;92982.56;;;-7.10
72405;BMP280;60395;52.020;113.548;2024-03-06T00:53:27;92983.69;;;-7.13
72405;BMP280;60395;52.020;113.548;2024-03-06T00:56:31;92981.59;;;-7.04
72405;BMP280;60395;52.020;113.548;2024-03-06T00:59:34;92988.66;;;-6.82
72405;BMP280;60395;52.020;113.548;2024-03-06T01:02:38;92990.88;;;-6.76
72405;BMP280;60395;52.020;113.548;2024-03-06T01:05:42;92995.41;;;-6.86
72405;BMP280;60395;52.020;113.548;2024-03-06T01:08:45;93000.03;;;-6.94
72405;BMP280;60395;52.020;113.548;2024-03-06T01:11:49;93001.69;;;-6.99
72405;BMP280;60395;52.020;113.548;2024-03-06T01:14:52;92995.72;;;-6.92
72405;BMP280;60395;52.020;113.548;2024-03-06T01:17:56;93008.84;;;-6.86
72405;BMP280;60395;52.020;113.548;2024-03-06T01:21:00;93006.19;;;-6.76
72405;BMP280;60395;52.020;113.548;2024-03-06T01:24:07;92995.09;;;-6.69
72405;BMP280;60395;52.020;113.548;2024-03-06T01:27:10;92996.13;;;-6.62
72405;BMP280;60395;52.020;113.548;2024-03-06T01:30:13;92993.03;;;-6.49
72405;BMP280;60395;52.020;113.548;2024-03-06T01:33:17;92995.59;;;-6.38
72405;BMP280;60395;52.020;113.548;2024-03-06T01:36:20;92999.50;;;-6.25
72405;BMP280;60395;52.020;113.548;2024-03-06T01:39:24;92996.97;;;-6.13
72405;BMP280;60395;52.020;113.548;2024-03-06T01:42:28;93000.59;;;-6.05
72405;BMP280;60395;52.020;113.548;2024-03-06T01:45:32;92998.94;;;-6.00
72405;BMP280;60395;52.020;113.548;2024-03-06T01:48:35;92993.59;;;-5.92
72405;BMP280;60395;52.020;113.548;2024-03-06T01:51:40;93000.47;;;-5.83
72405;BMP280;60395;52.020;113.548;2024-03-06T01:54:44;92995.03;;;-5.78
72405;BMP280;60395;52.020;113.548;2024-03-06T01:57:50;92994.47;;;-5.76
72405;BMP280;60395;52.020;113.548;2024-03-06T02:00:53;92991.56;;;-5.71
72405;BMP280;60395;52.020;113.548;2024-03-06T02:03:58;92998.13;;;-5.68
72405;BMP280;60395;52.020;113.548;2024-03-06T02:07:03;92987.44;;;-5.64
72405;BMP280;60395;52.020;113.548;2024-03-06T02:10:07;92987.44;;;-5.52
72405;BMP280;60395;52.020;113.548;2024-03-06T02:13:13;92982.94;;;-5.40
72405;BMP280;60395;52.020;113.548;2024-03-06T02:16:17;92982.13;;;-5.31
72405;BMP280;60395;52.020;113.548;2024-03-06T02:19:20;92968.50;;;-5.22
72405;BMP280;60395;52.020;113.548;2024-03-06T02:22:24;92970.16;;;-5.15
72405;BMP280;60395;52.020;113.548;2024-03-06T02:25:27;92968.00;;;-5.07
72405;BMP280;60395;52.020;113.548;2024-03-06T02:28:30;92976.38;;;-4.93
72405;BMP280;60395;52.020;113.548;2024-03-06T02:31:34;92976.50;;;-4.77
72405;BMP280;60395;52.020;113.548;2024-03-06T02:34:37;92970.66;;;-4.66
72405;BMP280;60395;52.020;113.548;2024-03-06T02:37:42;92972.28;;;-4.59
72405;BMP280;60395;52.020;113.548;2024-03-06T02:40:47;92973.25;;;-4.52
72405;BMP280;60395;52.020;113.548;2024-03-06T02:43:50;92971.72;;;-4.44
72405;BMP280;60395;52.020;113.548;2024-03-06T02:46:55;92968.59;;;-4.42
72405;BMP280;60395;52.020;113.548;2024-03-06T02:49:58;92965.38;;;-4.43
72405;BMP280;60395;52.020;113.548;2024-03-06T02:53:02;92957.88;;;-4.38
72405;BMP280;60395;52.020;113.548;2024-03-06T02:56:06;92955.31;;;-4.38
72405;BMP280;60395;52.020;113.548;2024-03-06T02:59:09;92965.09;;;-4.35
72405;BMP280;60395;52.020;113.548;2024-03-06T03:02:13;92960.91;;;-4.28
72405;BMP280;60395;52.020;113.548;2024-03-06T03:05:16;92967.38;;;-4.27
72405;BMP280;60395;52.020;113.548;2024-03-06T03:08:19;92973.84;;;-4.26
72405;BMP280;60395;52.020;113.548;2024-03-06T03:11:23;92963.66;;;-4.24
72405;BMP280;60395;52.020;113.548;2024-03-06T03:14:26;92962.44;;;-4.10
72405;BMP280;60395;52.020;113.548;2024-03-06T03:17:30;92959.28;;;-3.94
72405;BMP280;60395;52.020;113.548;2024-03-06T03:20:37;92955.38;;;-3.82
72405;BMP280;60395;52.020;113.548;2024-03-06T03:23:44;92957.75;;;-3.72
72405;BMP280;60395;52.020;113.548;2024-03-06T03:26:48;92955.63;;;-3.62
72405;BMP280;60395;52.020;113.548;2024-03-06T03:29:51;92951.81;;;-3.61
72405;BMP280;60395;52.020;113.548;2024-03-06T03:32:54;92948.84;;;-3.55
72405;BMP280;60395;52.020;113.548;2024-03-06T03:35:58;92944.81;;;-3.45
72405;BMP280;60395;52.020;113.548;2024-03-06T03:39:01;92941.28;;;-3.38
72405;BMP280;60395;52.020;113.548;2024-03-06T03:42:06;92941.81;;;-3.26
72405;BMP280;60395;52.020;113.548;2024-03-06T03:45:09;92933.03;;;-3.20
72405;BMP280;60395;52.020;113.548;2024-03-06T03:48:13;92938.50;;;-3.12
72405;BMP280;60395;52.020;113.548;2024-03-06T03:51:17;92936.09;;;-3.08
72405;BMP280;60395;52.020;113.548;2024-03-06T03:54:20;92929.41;;;-3.00
72405;BMP280;60395;52.020;113.548;2024-03-06T03:57:24;92932.06;;;-2.82
72405;BMP280;60395;52.020;113.548;2024-03-06T04:00:28;92928.56;;;-2.73
72405;BMP280;60395;52.020;113.548;2024-03-06T04:03:35;92925.84;;;-2.61
72405;BMP280;60395;52.020;113.548;2024-03-06T04:06:39;92925.06;;;-2.48
72405;BMP280;60395;52.020;113.548;2024-03-06T04:09:43;92919.75;;;-2.52
72405;BMP280;60395;52.020;113.548;2024-03-06T04:12:46;92908.25;;;-2.51
72405;BMP280;60395;52.020;113.548;2024-03-06T04:15:50;92907.38;;;-2.40
72405;BMP280;60395;52.020;113.548;2024-03-06T04:18:53;92907.88;;;-2.28
72405;BMP280;60395;52.020;113.548;2024-03-06T04:21:57;92901.03;;;-2.21
72405;BMP280;60395;52.020;113.548;2024-03-06T04:25:01;92891.72;;;-2.13
72405;BMP280;60395;52.020;113.548;2024-03-06T04:28:07;92891.41;;;-2.03
72405;BMP280;60395;52.020;113.548;2024-03-06T04:31:11;92890.84;;;-1.84
72405;BMP280;60395;52.020;113.548;2024-03-06T04:34:17;92891.34;;;-1.70
72405;BMP280;60395;52.020;113.548;2024-03-06T04:37:21;92879.94;;;-1.65
72405;BMP280;60395;52.020;113.548;2024-03-06T04:40:24;92878.03;;;-1.64
72405;BMP280;60395;52.020;113.548;2024-03-06T04:43:28;92883.25;;;-1.62
72405;BMP280;60395;52.020;113.548;2024-03-06T04:46:31;92881.06;;;-1.70
72405;BMP280;60395;52.020;113.548;2024-03-06T04:49:36;92880.25;;;-1.74
72405;BMP280;60395;52.020;113.548;2024-03-06T04:52:40;92870.91;;;-1.66
72405;BMP280;60395;52.020;113.548;2024-03-06T04:55:44;92865.88;;;-1.44
72405;BMP280;60395;52.020;113.548;2024-03-06T04:58:47;92869.03;;;-1.28
72405;BMP280;60395;52.020;113.548;2024-03-06T05:01:52;92872.31;;;-1.25
72405;BMP280;60395;52.020;113.548;2024-03-06T05:04:56;92872.66;;;-1.15
72405;BMP280;60395;52.020;113.548;2024-03-06T05:08:16;92867.63;;;-0.91
72405;BMP280;60395;52.020;113.548;2024-03-06T05:11:37;92857.91;;;-0.73
72405;BMP280;60395;52.020;113.548;2024-03-06T05:14:58;92857.38;;;-0.48
72405;BMP280;60395;52.020;113.548;2024-03-06T05:18:18;92855.00;;;-0.20
72405;BMP280;60395;52.020;113.548;2024-03-06T05:21:39;92846.25;;;-0.11
72405;BMP280;60395;52.020;113.548;2024-03-06T05:24:59;92855.59;;;0.00
72405;BMP280;60395;52.020;113.548;2024-03-06T05:28:20;92853.81;;;0.05
72405;BMP280;60395;52.020;113.548;2024-03-06T05:31:40;92857.38;;;0.18
72405;BMP280;60395;52.020;113.548;2024-03-06T05:35:01;92855.28;;;0.36
72405;BMP280;60395;52.020;113.548;2024-03-06T05:38:23;92858.53;;;0.60
72405;BMP280;60395;52.020;113.548;2024-03-06T05:41:44;92850.22;;;0.64
72405;BMP280;60395;52.020;113.548;2024-03-06T05:45:04;92842.94;;;0.32
72405;BMP280;60395;52.020;113.548;2024-03-06T05:48:29;92840.56;;;0.17
72405;BMP280;60395;52.020;113.548;2024-03-06T05:51:49;92831.09;;;-0.22
72405;BMP280;60395;52.020;113.548;2024-03-06T05:55:10;92836.06;;;-0.70
72405;BMP280;60395;52.020;113.548;2024-03-06T05:58:30;92831.97;;;-0.77
72405;BMP280;60395;52.020;113.548;2024-03-06T06:01:37;92829.91;;;-0.61
72405;BMP280;60395;52.020;113.548;2024-03-06T06:04:41;92823.91;;;-0.46
72405;BMP280;60395;52.020;113.548;2024-03-06T06:07:56;92820.31;;;-0.36
72405;BMP280;60395;52.020;113.548;2024-03-06T06:10:59;92813.38;;;-0.32
72405;BMP280;60395;52.020;113.548;2024-03-06T06:14:03;92814.13;;;-0.27
72405;BMP280;60395;52.020;113.548;2024-03-06T06:17:06;92817.56;;;-0.21
72405;BMP280;60395;52.020;113.548;2024-03-06T06:20:13;92805.31;;;-0.20
72405;BMP280;60395;52.020;113.548;2024-03-06T06:23:21;92818.13;;;-0.24
72405;BMP280;60395;52.020;113.548;2024-03-06T06:26:24;92807.53;;;-0.32
72405;BMP280;60395;52.020;113.548;2024-03-06T06:29:28;92807.97;;;-0.40
72405;BMP280;60395;52.020;113.548;2024-03-06T06:32:32;92803.66;;;-0.55
72405;BMP280;60395;52.020;113.548;2024-03-06T06:35:36;92806.94;;;-0.53
72405;BMP280;60395;52.020;113.548;2024-03-06T06:38:40;92794.91;;;-0.44
72405;BMP280;60395;52.020;113.548;2024-03-06T06:41:43;92793.50;;;-0.27
72405;BMP280;60395;52.020;113.548;2024-03-06T06:44:53;92800.53;;;-0.30
72405;BMP280;60395;52.020;113.548;2024-03-06T06:48:03;92790.13;;;-0.54
72405;BMP280;60395;52.020;113.548;2024-03-06T06:51:06;92781.59;;;-0.80
72405;BMP280;60395;52.020;113.548;2024-03-06T06:54:10;92782.13;;;-1.05
72405;BMP280;60395;52.020;113.548;2024-03-06T06:57:14;92777.19;;;-1.19
72405;BMP280;60395;52.020;113.548;2024-03-06T07:00:19;92779.28;;;-1.13
72405;BMP280;60395;52.020;113.548;2024-03-06T07:03:24;92780.06;;;-0.89
72405;BMP280;60395;52.020;113.548;2024-03-06T07:06:34;92790.13;;;-0.54
72405;BMP280;60395;52.020;113.548;2024-03-06T07:09:38;92784.66;;;-0.20
72405;BMP280;60395;52.020;113.548;2024-03-06T07:12:42;92782.19;;;-0.16
72405;BMP280;60395;52.020;113.548;2024-03-06T07:15:45;92788.56;;;-0.19
72405;BMP280;60395;52.020;113.548;2024-03-06T07:18:49;92784.00;;;-0.21
72405;BMP280;60395;52.020;113.548;2024-03-06T07:21:53;92785.41;;;-0.39
72405;BMP280;60395;52.020;113.548;2024-03-06T07:24:56;92785.69;;;-0.73
72405;BMP280;60395;52.020;113.548;2024-03-06T07:28:00;92780.66;;;-0.91
72405;BMP280;60395;52.020;113.548;2024-03-06T07:31:09;92775.09;;;-1.03
72405;BMP280;60395;52.020;113.548;2024-03-06T07:34:17;92773.75;;;-1.26
72405;BMP280;60395;52.020;113.548;2024-03-06T07:37:39;92770.81;;;-1.36
72405;BMP280;60395;52.020;113.548;2024-03-06T07:40:43;92768.50;;;-1.47
72405;BMP280;60395;52.020;113.548;2024-03-06T07:43:52;92770.50;;;-1.46
72405;BMP280;60395;52.020;113.548;2024-03-06T07:46:56;92769.91;;;-1.44
72405;BMP280;60395;52.020;113.548;2024-03-06T07:50:04;92758.94;;;-1.45
72405;BMP280;60395;52.020;113.548;2024-03-06T07:53:10;92760.66;;;-1.51
72405;BMP280;60395;52.020;113.548;2024-03-06T07:56:17;92753.19;;;-1.43
72405;BMP280;60395;52.020;113.548;2024-03-06T07:59:21;92761.59;;;-1.23
72405;BMP280;60395;52.020;113.548;2024-03-06T08:02:34;92755.06;;;-1.04
72405;BMP280;60395;52.020;113.548;2024-03-06T08:05:38;92761.69;;;-0.99
72405;BMP280;60395;52.020;113.548;2024-03-06T08:08:49;92758.94;;;-1.05
72405;BMP280;60395;52.020;113.548;2024-03-06T08:11:58;92769.38;;;-1.21
72405;BMP280;60395;52.020;113.548;2024-03-06T08:15:13;92766.22;;;-1.19
72405;BMP280;60395;52.020;113.548;2024-03-06T08:18:17;92759.88;;;-1.16
72405;BMP280;60395;52.020;113.548;2024-03-06T08:21:24;92762.84;;;-1.24
72405;BMP280;60395;52.020;113.548;2024-03-06T08:24:29;92760.16;;;-1.28
72405;BMP280;60395;52.020;113.548;2024-03-06T08:27:38;92761.06;;;-1.39
72405;BMP280;60395;52.020;113.548;2024-03-06T08:30:45;92759.47;;;-1.48
72405;BMP280;60395;52.020;113.548;2024-03-06T08:33:48;92757.22;;;-1.58
72405;BMP280;60395;52.020;113.548;2024-03-06T08:36:55;92766.00;;;-1.65
72405;BMP280;60395;52.020;113.548;2024-03-06T08:40:06;92762.16;;;-1.64
72405;BMP280;60395;52.020;113.548;2024-03-06T08:43:26;92771.50;;;-1.55
72405;BMP280;60395;52.020;113.548;2024-03-06T08:46:39;92764.09;;;-1.45
72405;BMP280;60395;52.020;113.548;2024-03-06T08:49:46;92761.72;;;-1.39
72405;BMP280;60395;52.020;113.548;2024-03-06T08:52:50;92755.38;;;-1.36
72405;BMP280;60395;52.020;113.548;2024-03-06T08:56:01;92763.84;;;-1.33
72405;BMP280;60395;52.020;113.548;2024-03-06T08:59:09;92768.16;;;-1.38
72405;BMP280;60395;52.020;113.548;2024-03-06T09:02:18;92761.84;;;-1.54
72405;BMP280;60395;52.020;113.548;2024-03-06T09:05:24;92770.28;;;-1.72
72405;BMP280;60395;52.020;113.548;2024-03-06T09:08:33;92774.94;;;-1.86
72405;BMP280;60395;52.020;113.548;2024-03-06T09:11:42;92770.09;;;-1.95
72405;BMP280;60395;52.020;113.548;2024-03-06T09:14:46;92768.56;;;-2.02
72405;BMP280;60395;52.020;113.548;2024-03-06T09:17:53;92767.84;;;-2.05
72405;BMP280;60395;52.020;113.548;2024-03-06T09:20:57;92769.75;;;-2.06
72405;BMP280;60395;52.020;113.548;2024-03-06T09:24:02;92773.72;;;-2.02
72405;BMP280;60395;52.020;113.548;2024-03-06T09:27:05;92774.81;;;-2.08
72405;BMP280;60395;52.020;113.548;2024-03-06T09:30:13;92773.44;;;-2.11
72405;BMP280;60395;52.020;113.548;2024-03-06T09:33:18;92766.97;;;-2.12
72405;BMP280;60395;52.020;113.548;2024-03-06T09:36:26;92782.63;;;-2.06
72405;BMP280;60395;52.020;113.548;2024-03-06T09:39:29;92773.72;;;-2.02
72405;BMP280;60395;52.020;113.548;2024-03-06T09:42:34;92776.41;;;-1.98
72405;BMP280;60395;52.020;113.548;2024-03-06T09:45:39;92778.84;;;-2.02
72405;BMP280;60395;52.020;113.548;2024-03-06T09:48:47;92780.50;;;-2.11
72405;BMP280;60395;52.020;113.548;2024-03-06T09:51:51;92785.28;;;-2.21
72405;BMP280;60395;52.020;113.548;2024-03-06T09:54:59;92785.22;;;-2.23
72405;BMP280;60395;52.020;113.548;2024-03-06T09:58:03;92794.13;;;-2.26
72405;BMP280;60395;52.020;113.548;2024-03-06T10:01:08;92784.38;;;-2.46
72405;BMP280;60395;52.020;113.548;2024-03-06T10:04:22;92796.13;;;-2.58
72405;BMP280;60395;52.020;113.548;2024-03-06T10:07:28;92794.78;;;-2.77
72405;BMP280;60395;52.020;113.548;2024-03-06T10:10:32;92795.19;;;-2.82
72405;BMP280;60395;52.020;113.548;2024-03-06T10:13:36;92794.97;;;-2.89
72405;BMP280;60395;52.020;113.548;2024-03-06T10:16:56;92797.72;;;-3.00
72405;BMP280;60395;52.020;113.548;2024-03-06T10:20:00;92797.31;;;-3.10
72405;BMP280;60395;52.020;113.548;2024-03-06T10:23:11;92802.53;;;-3.24
72405;BMP280;60395;52.020;113.548;2024-03-06T10:26:30;92814.13;;;-3.39
72405;BMP280;60395;52.020;113.548;2024-03-06T10:29:34;92813.81;;;-3.47
72405;BMP280;60395;52.020;113.548;2024-03-06T10:32:42;92810.16;;;-3.57
72405;BMP280;60395;52.020;113.548;2024-03-06T10:35:48;92815.44;;;-3.69
72405;BMP280;60395;52.020;113.548;2024-03-06T10:38:56;92820.88;;;-3.77
72405;BMP280;60395;52.020;113.548;2024-03-06T10:42:02;92830.72;;;-3.87
72405;BMP280;60395;52.020;113.548;2024-03-06T10:45:16;92829.13;;;-3.94
72405;BMP280;60395;52.020;113.548;2024-03-06T10:48:23;92828.28;;;-3.98
72405;BMP280;60395;52.020;113.548;2024-03-06T10:51:42;92840.28;;;-4.03
72405;BMP280;60395;52.020;113.548;2024-03-06T10:54:50;92838.09;;;-4.09
72405;BMP280;60395;52.020;113.548;2024-03-06T10:57:55;92844.38;;;-4.12
72405;BMP280;60395;52.020;113.548;2024-03-06T11:01:03;92847.31;;;-4.17
72405;BMP280;60395;52.020;113.548;2024-03-06T11:04:20;92854.16;;;-4.22
72405;BMP280;60395;52.020;113.548;2024-03-06T11:07:26;92857.78;;;-4.27
72405;BMP280;60395;52.020;113.548;2024-03-06T11:10:31;92860.34;;;-4.27
72405;BMP280;60395;52.020;113.548;2024-03-06T11:13:43;92859.53;;;-4.31
72405;BMP280;60395;52.020;113.548;2024-03-06T11:17:10;92863.03;;;-4.38
72405;BMP280;60395;52.020;113.548;2024-03-06T11:20:18;92863.31;;;-4.46
72405;BMP280;60395;52.020;113.548;2024-03-06T11:23:22;92866.25;;;-4.52
72405;BMP280;60395;52.020;113.548;2024-03-06T11:26:35;92863.31;;;-4.60
72405;BMP280;60395;52.020;113.548;2024-03-06T11:30:05;92865.13;;;-4.62
72405;BMP280;60395;52.020;113.548;2024-03-06T11:33:22;92871.31;;;-4.67
72405;BMP280;60395;52.020;113.548;2024-03-06T11:36:28;92874.25;;;-4.73
72405;BMP280;60395;52.020;113.548;2024-03-06T11:39:37;92868.72;;;-4.81
72405;BMP280;60395;52.020;113.548;2024-03-06T11:42:47;92874.72;;;-4.76
72405;BMP280;60395;52.020;113.548;2024-03-06T11:46:11;92883.44;;;-4.82
72405;BMP280;60395;52.020;113.548;2024-03-06T11:49:23;92881.94;;;-4.87
72405;BMP280;60395;52.020;113.548;2024-03-06T11:52:33;92883.50;;;-4.93
72405;BMP280;60395;52.020;113.548;2024-03-06T11:55:38;92875.91;;;-5.05
72405;BMP280;60395;52.020;113.548;2024-03-06T11:58:46;92886.06;;;-5.07
72405;BMP280;60395;52.020;113.548;2024-03-06T12:01:59;92896.75;;;-5.10
72405;BMP280;60395;52.020;113.548;2024-03-06T12:05:19;92893.81;;;-5.18
72405;BMP280;60395;52.020;113.548;2024-03-06T12:08:26;92896.09;;;-5.25
72405;BMP280;60395;52.020;113.548;2024-03-06T12:11:36;92904.00;;;-5.32
72405;BMP280;60395;52.020;113.548;2024-03-06T12:14:40;92898.25;;;-5.44
72405;BMP280;60395;52.020;113.548;2024-03-06T12:17:48;92906.97;;;-5.49
72405;BMP280;60395;52.020;113.548;2024-03-06T12:20:59;92910.91;;;-5.60
72405;BMP280;60395;52.020;113.548;2024-03-06T12:24:09;92901.38;;;-5.71
72405;BMP280;60395;52.020;113.548;2024-03-06T12:27:13;92917.06;;;-5.77
72405;BMP280;60395;52.020;113.548;2024-03-06T12:30:21;92914.31;;;-5.81
72405;BMP280;60395;52.020;113.548;2024-03-06T12:33:25;92916.00;;;-5.85
72405;BMP280;60395;52.020;113.548;2024-03-06T12:36:32;92921.22;;;-5.95
72405;BMP280;60395;52.020;113.548;2024-03-06T12:39:36;92922.91;;;-6.00
72405;BMP280;60395;52.020;113.548;2024-03-06T12:42:44;92913.00;;;-6.05
72405;BMP280;60395;52.020;113.548;2024-03-06T12:45:49;92912.94;;;-6.07
72405;BMP280;60395;52.020;113.548;2024-03-06T12:48:53;92921.16;;;-6.09
72405;BMP280;60395;52.020;113.548;2024-03-06T12:51:56;92924.25;;;-6.10
72405;BMP280;60395;52.020;113.548;2024-03-06T12:55:03;92932.25;;;-6.16
72405;BMP280;60395;52.020;113.548;2024-03-06T12:58:08;92926.81;;;-6.22
72405;BMP280;60395;52.020;113.548;2024-03-06T13:01:14;92932.84;;;-6.29
72405;BMP280;60395;52.020;113.548;2024-03-06T13:04:25;92931.94;;;-6.34
72405;BMP280;60395;52.020;113.548;2024-03-06T13:07:42;92928.50;;;-6.38
72405;BMP280;60395;52.020;113.548;2024-03-06T13:10:53;92934.06;;;-6.42
72405;BMP280;60395;52.020;113.548;2024-03-06T13:14:06;92938.72;;;-6.38
72405;BMP280;60395;52.020;113.548;2024-03-06T13:17:10;92928.41;;;-6.40
72405;BMP280;60395;52.020;113.548;2024-03-06T13:20:14;92941.94;;;-6.38
72405;BMP280;60395;52.020;113.548;2024-03-06T13:23:20;92939.84;;;-6.41
72405;BMP280;60395;52.020;113.548;2024-03-06T13:26:24;92934.28;;;-6.49
72405;BMP280;60395;52.020;113.548;2024-03-06T13:29:27;92931.41;;;-6.55
72405;BMP280;60395;52.020;113.548;2024-03-06T13:32:31;92942.94;;;-6.54
72405;BMP280;60395;52.020;113.548;2024-03-06T13:35:35;92938.28;;;-6.58
72405;BMP280;60395;52.020;113.548;2024-03-06T13:38:38;92932.28;;;-6.62
72405;BMP280;60395;52.020;113.548;2024-03-06T13:41:42;92944.03;;;-6.69
72405;BMP280;60395;52.020;113.548;2024-03-06T13:44:45;92938.47;;;-6.77
72405;BMP280;60395;52.020;113.548;2024-03-06T13:47:49;92949.31;;;-6.88
72405;BMP280;60395;52.020;113.548;2024-03-06T13:50:53;92938.00;;;-6.97
72405;BMP280;60395;52.020;113.548;2024-03-06T13:53:56;92934.63;;;-7.11
72405;BMP280;60395;52.020;113.548;2024-03-06T13:57:00;92939.03;;;-7.23
72405;BMP280;60395;52.020;113.548;2024-03-06T14:00:08;92937.22;;;-7.32
72405;BMP280;60395;52.020;113.548;2024-03-06T14:03:21;92945.97;;;-7.35
72405;BMP280;60395;52.020;113.548;2024-03-06T14:06:25;92952.06;;;-7.40
72405;BMP280;60395;52.020;113.548;2024-03-06T14:09:28;92951.03;;;-7.47
72405;BMP280;60395;52.020;113.548;2024-03-06T14:12:32;92947.97;;;-7.55
72405;BMP280;60395;52.020;113.548;2024-03-06T14:15:35;92955.94;;;-7.61
72405;BMP280;60395;52.020;113.548;2024-03-06T14:18:40;92952.78;;;-7.71
72405;BMP280;60395;52.020;113.548;2024-03-06T14:21:44;92952.31;;;-7.79
72405;BMP280;60395;52.020;113.548;2024-03-06T14:24:47;92954.06;;;-7.82
72405;BMP280;60395;52.020;113.548;2024-03-06T14:27:51;92955.56;;;-7.88
72405;BMP280;60395;52.020;113.548;2024-03-06T14:30:54;92955.75;;;-7.96
72405;BMP280;60395;52.020;113.548;2024-03-06T14:33:58;92967.59;;;-8.00
72405;BMP280;60395;52.020;113.548;2024-03-06T14:37:06;92975.09;;;-8.02
72405;BMP280;60395;52.020;113.548;2024-03-06T14:40:10;92974.31;;;-8.05
72405;BMP280;60395;52.020;113.548;2024-03-06T14:43:14;92972.97;;;-8.06
72405;BMP280;60395;52.020;113.548;2024-03-06T14:46:18;92970.53;;;-8.04
72405;BMP280;60395;52.020;113.548;2024-03-06T14:49:22;92981.84;;;-8.07
72405;BMP280;60395;52.020;113.548;2024-03-06T14:52:26;92970.97;;;-8.07
72405;BMP280;60395;52.020;113.548;2024-03-06T14:55:29;92977.50;;;-8.04
72405;BMP280;60395;52.020;113.548;2024-03-06T14:58:33;92978.91;;;-8.13
72405;BMP280;60395;52.020;113.548;2024-03-06T15:01:36;92985.47;;;-8.20
72405;BMP280;60395;52.020;113.548;2024-03-06T15:04:40;92979.59;;;-8.22
72405;BMP280;60395;52.020;113.548;2024-03-06T15:07:44;92971.94;;;-8.22
72405;BMP280;60395;52.020;113.548;2024-03-06T15:10:47;92974.09;;;-8.18
72405;BMP280;60395;52.020;113.548;2024-03-06T15:13:51;92982.78;;;-8.12
72405;BMP280;60395;52.020;113.548;2024-03-06T15:16:54;92984.94;;;-8.08
72405;BMP280;60395;52.020;113.548;2024-03-06T15:20:02;92984.25;;;-8.09
72405;BMP280;60395;52.020;113.548;2024-03-06T15:23:06;92981.00;;;-8.09
72405;BMP280;60395;52.020;113.548;2024-03-06T15:26:09;92978.34;;;-8.11
72405;BMP280;60395;52.020;113.548;2024-03-06T15:29:14;92982.41;;;-8.18
72405;BMP280;60395;52.020;113.548;2024-03-06T15:32:18;92982.31;;;-8.30
72405;BMP280;60395;52.020;113.548;2024-03-06T15:35:21;92991.47;;;-8.46
72405;BMP280;60395;52.020;113.548;2024-03-06T15:38:26;92984.50;;;-8.55
72405;BMP280;60395;52.020;113.548;2024-03-06T15:41:29;92980.41;;;-8.70
72405;BMP280;60395;52.020;113.548;2024-03-06T15:44:33;92986.19;;;-8.79
72405;BMP280;60395;52.020;113.548;2024-03-06T15:47:36;92983.38;;;-8.83
72405;BMP280;60395;52.020;113.548;2024-03-06T15:50:42;92983.09;;;-8.87
72405;BMP280;60395;52.020;113.548;2024-03-06T15:53:46;92980.44;;;-8.89
72405;BMP280;60395;52.020;113.548;2024-03-06T15:56:49;92981.78;;;-8.98
72405;BMP280;60395;52.020;113.548;2024-03-06T15:59:54;92982.72;;;-9.03
72405;BMP280;60395;52.020;113.548;2024-03-06T16:02:58;92981.66;;;-9.00
72405;BMP280;60395;52.020;113.548;2024-03-06T16:06:01;92993.16;;;-8.99
72405;BMP280;60395;52.020;113.548;2024-03-06T16:09:19;92989.41;;;-8.98
72405;BMP280;60395;52.020;113.548;2024-03-06T16:12:23;92998.25;;;-8.99
72405;BMP280;60395;52.020;113.548;2024-03-06T16:15:27;92999.06;;;-9.06
72405;BMP280;60395;52.020;113.548;2024-03-06T16:18:30;93002.81;;;-9.07
72405;BMP280;60395;52.020;113.548;2024-03-06T16:21:34;92997.06;;;-9.07
72405;BMP280;60395;52.020;113.548;2024-03-06T16:24:38;92995.28;;;-9.05
72405;BMP280;60395;52.020;113.548;2024-03-06T16:27:42;93005.75;;;-9.01
72405;BMP280;60395;52.020;113.548;2024-03-06T16:30:45;93001.75;;;-8.94
72405;BMP280;60395;52.020;113.548;2024-03-06T16:33:49;93000.25;;;-8.87
72405;BMP280;60395;52.020;113.548;2024-03-06T16:36:52;93000.63;;;-8.81
72405;BMP280;60395;52.020;113.548;2024-03-06T16:39:56;93004.25;;;-8.75
72405;BMP280;60395;52.020;113.548;2024-03-06T16:42:59;93002.13;;;-8.69
72405;BMP280;60395;52.020;113.548;2024-03-06T16:46:03;93012.28;;;-8.69
72405;BMP280;60395;52.020;113.548;2024-03-06T16:49:07;93006.81;;;-8.75
72405;BMP280;60395;52.020;113.548;2024-03-06T16:52:10;93007.22;;;-8.78
72405;BMP280;60395;52.020;113.548;2024-03-06T16:55:16;93009.78;;;-8.78
72405;BMP280;60395;52.020;113.548;2024-03-06T16:58:20;93007.91;;;-8.78
72405;BMP280;60395;52.020;113.548;2024-03-06T17:01:24;93012.69;;;-8.82
72405;BMP280;60395;52.020;113.548;2024-03-06T17:04:27;93012.56;;;-8.84
72405;BMP280;60395;52.020;113.548;2024-03-06T17:07:31;93013.53;;;-8.89
72405;BMP280;60395;52.020;113.548;2024-03-06T17:10:34;93013.91;;;-8.93
72405;BMP280;60395;52.020;113.548;2024-03-06T17:13:38;93013.25;;;-9.03
72405;BMP280;60395;52.020;113.548;2024-03-06T17:16:42;93020.75;;;-9.14
72405;BMP280;60395;52.020;113.548;2024-03-06T17:19:45;93028.50;;;-9.22
72405;BMP280;60395;52.020;113.548;2024-03-06T17:22:49;93029.44;;;-9.27